Time;durP1;ratioP1;P1;durP2;ratioP2;P2;SDS_P1;SDS_P2;PMS_P1;PMS_P2;Temp;Humidity;BMP_temperature;BMP_pressure;BME280_temperature;BME280_humidity;BME280_pressure;Samples;Min_cycle;Max_cycle;Signal;HPM_P1;HPM_P2
2023/10/19 00:00:36;;;;;;;55.95;36.45;;;282.40;2278.40;;;;;;4976129;28;20025;-61
2023/10/19 00:03:03;;;;;;;34.40;23.20;;;282.50;2278.40;;;;;;4986694;28;20034;-61
2023/10/19 00:05:30;;;;;;;22.88;16.08;;;282.50;2278.40;;;;;;4992271;28;20026;-58
2023/10/19 00:08:00;;;;;;;21.00;15.60;;;282.50;2278.40;;;;;;4991991;28;20058;-60
2023/10/19 00:10:32;;;;;;;24.23;17.55;;;282.50;2278.40;;;;;;4992636;28;20030;-61
2023/10/19 00:13:05;;;;;;;19.85;15.75;;;282.50;2278.40;;;;;;4977355;28;20050;-58
2023/10/19 00:15:34;;;;;;;;;;;282.50;2278.40;;;;;;4985090;28;20126;-59
2023/10/19 00:18:19;;;;;;;19.55;13.90;;;282.50;2278.40;;;;;;4992267;28;20352;-61
2023/10/19 00:23:14;;;;;;;23.98;16.38;;;282.50;2278.40;;;;;;4992430;28;20064;-58
2023/10/19 00:25:41;;;;;;;26.15;16.75;;;282.40;2278.40;;;;;;4991889;28;20018;-58
2023/10/19 00:28:08;;;;;;;19.75;14.82;;;282.40;2278.40;;;;;;4992461;28;20105;-58
2023/10/19 00:30:37;;;;;;;20.20;14.68;;;282.50;2278.40;;;;;;4992434;28;20423;-58
2023/10/19 00:33:15;;;;;;;19.83;14.93;;;282.50;2278.40;;;;;;4992154;28;20037;-61
2023/10/19 00:35:46;;;;;;;26.52;18.40;;;282.50;2278.40;;;;;;4970125;28;20503;-61
2023/10/19 00:38:50;;;;;;;69.30;44.35;;;282.50;2278.40;;;;;;4991908;28;20085;-58
2023/10/19 00:43:43;;;;;;;31.40;20.63;;;307.30;2304.00;;;;;;4983246;28;20035;-61
2023/10/19 00:49:09;;;;;;;19.88;14.07;;;307.30;2304.00;;;;;;4992100;28;20491;-61
2023/10/19 00:51:42;;;;;;;26.05;17.42;;;307.30;2304.00;;;;;;4991934;28;20457;-59
2023/10/19 00:54:16;;;;;;;19.83;13.35;;;307.30;2304.00;;;;;;4991470;28;20465;-62
2023/10/19 00:56:51;;;;;;;44.45;23.98;;;307.30;2304.00;;;;;;4991759;28;20038;-58
2023/10/19 00:59:30;;;;;;;49.95;30.60;;;307.20;2304.00;;;;;;4991781;28;20029;-58
2023/10/19 01:05:04;;;;;;;44.97;30.05;;;307.20;2304.00;;;;;;4912866;29;20387;-61
2023/10/19 01:07:30;;;;;;;60.92;39.38;;;307.30;2304.00;;;;;;4931019;29;20059;-58
2023/10/19 01:09:59;;;;;;;31.45;19.70;;;307.30;2304.00;;;;;;4923288;29;20116;-61
2023/10/19 01:12:32;;;;;;;33.38;22.90;;;307.30;2304.00;;;;;;4919843;29;20051;-61
2023/10/19 01:15:17;;;;;;;31.00;22.48;;;307.20;2304.00;;;;;;4908615;29;20051;-61
2023/10/19 01:17:56;;;;;;;38.72;23.83;;;307.30;2304.00;;;;;;4890260;29;20043;-60
2023/10/19 01:31:22;;;;;;;29.08;22.10;;;307.30;2304.00;;;;;;4903595;29;20114;-60
2023/10/19 01:33:48;;;;;;;35.22;22.83;;;307.40;2304.00;;;;;;4911563;29;20028;-61
2023/10/19 01:38:49;;;;;;;32.88;23.58;;;307.30;2304.00;;;;;;4971353;28;20381;-61
2023/10/19 01:41:18;;;;;;;40.08;25.17;;;307.30;2304.00;;;;;;4971580;28;20054;-59
2023/10/19 01:43:46;;;;;;;30.35;22.45;;;307.40;2304.00;;;;;;4971029;28;20026;-62
2023/10/19 01:46:21;;;;;;;30.70;22.05;;;307.30;2304.00;;;;;;4971279;28;20086;-59
2023/10/19 01:48:50;;;;;;;34.10;22.30;;;307.30;2304.00;;;;;;4951814;28;20035;-61
2023/10/19 01:51:16;;;;;;;32.28;20.85;;;307.30;2304.00;;;;;;4967012;28;20249;-60
2023/10/19 01:53:44;;;;;;;32.15;22.02;;;307.30;2304.00;;;;;;4971561;28;20035;-58
2023/10/19 01:56:14;;;;;;;30.10;22.20;;;307.30;2304.00;;;;;;4970815;28;20101;-58
2023/10/19 01:58:41;;;;;;;29.08;21.00;;;307.40;2304.00;;;;;;4970985;28;20035;-58
2023/10/19 02:01:18;;;;;;;29.48;21.17;;;307.40;2304.00;;;;;;4971034;28;20041;-58
2023/10/19 02:03:44;;;;;;;26.27;19.40;;;307.50;2304.00;;;;;;4971207;28;20034;-58
2023/10/19 02:06:26;;;;;;;25.52;20.23;;;307.50;2304.00;;;;;;4971048;28;20382;-59
2023/10/19 02:08:55;;;;;;;28.60;21.08;;;307.50;2304.00;;;;;;4970673;28;20034;-58
2023/10/19 02:11:22;;;;;;;34.33;22.02;;;307.50;2304.00;;;;;;4970692;28;20081;-59
2023/10/19 02:13:50;;;;;;;35.13;23.08;;;307.50;2304.00;;;;;;4985134;28;20108;-58
2023/10/19 02:16:21;;;;;;;29.35;20.95;;;307.50;2304.00;;;;;;4990618;28;20034;-60
2023/10/19 02:18:48;;;;;;;29.20;21.20;;;307.50;2304.00;;;;;;4981238;28;20110;-59
2023/10/19 02:21:14;;;;;;;30.63;20.58;;;307.50;2304.00;;;;;;4979115;28;20035;-58
2023/10/19 02:23:41;;;;;;;23.50;18.38;;;307.60;2304.00;;;;;;4989797;28;20037;-58
2023/10/19 02:26:08;;;;;;;17.73;14.13;;;307.50;2304.00;;;;;;4989918;28;20030;-59
2023/10/19 02:28:40;;;;;;;18.40;13.10;;;307.60;2304.00;;;;;;4990135;28;20022;-58
2023/10/19 02:31:18;;;;;;;20.45;13.30;;;307.60;2304.00;;;;;;4990277;28;20030;-57
2023/10/19 02:33:51;;;;;;;15.93;12.07;;;307.60;2304.00;;;;;;4989765;28;20161;-61
2023/10/19 02:36:21;;;;;;;15.70;11.45;;;307.60;2304.00;;;;;;4990331;28;20035;-58
2023/10/19 02:38:51;;;;;;;19.40;13.45;;;307.60;2304.00;;;;;;4964247;28;20029;-58
2023/10/19 02:41:19;;;;;;;14.98;11.40;;;307.70;2304.00;;;;;;4989274;28;20042;-59
2023/10/19 02:43:51;;;;;;;13.57;10.45;;;307.70;2304.00;;;;;;4990059;28;20038;-61
2023/10/19 02:46:17;;;;;;;14.10;10.85;;;307.80;2304.00;;;;;;4989577;28;20028;-58
2023/10/19 02:48:47;;;;;;;15.00;10.95;;;307.80;2304.00;;;;;;4977602;28;20382;-58
2023/10/19 02:51:13;;;;;;;17.77;12.23;;;307.80;2304.00;;;;;;4976631;28;20023;-59
2023/10/19 02:53:42;;;;;;;17.88;13.32;;;307.80;2304.00;;;;;;4989904;28;20022;-58
2023/10/19 02:56:23;;;;;;;14.70;10.85;;;307.80;2304.00;;;;;;4989281;28;20547;-58
2023/10/19 02:58:50;;;;;;;12.32;10.57;;;307.80;2304.00;;;;;;4989497;28;20022;-60
2023/10/19 03:01:30;;;;;;;16.25;11.57;;;307.70;2304.00;;;;;;4990132;28;20026;-58
2023/10/19 03:03:59;;;;;;;18.20;10.68;;;307.60;2304.00;;;;;;4989534;28;20026;-58
2023/10/19 03:06:32;;;;;;;15.30;11.02;;;307.60;2304.00;;;;;;4990312;28;20030;-61
2023/10/19 03:09:01;;;;;;;13.75;10.40;;;307.60;2304.00;;;;;;4989706;28;20633;-61
2023/10/19 03:11:29;;;;;;;16.75;11.50;;;307.60;2304.00;;;;;;4989530;28;20084;-59
2023/10/19 03:13:57;;;;;;;13.60;8.48;;;307.70;2304.00;;;;;;4989261;28;20563;-59
2023/10/19 03:16:23;;;;;;;17.25;9.45;;;307.80;2304.00;;;;;;4990001;28;20077;-58
2023/10/19 03:18:54;;;;;;;12.07;8.48;;;308.00;2304.00;;;;;;4989459;28;20026;-58
2023/10/19 03:21:26;;;;;;;11.10;8.25;;;308.10;2304.00;;;;;;4989346;28;20089;-59
2023/10/19 03:23:53;;;;;;;12.50;9.43;;;332.80;2329.60;;;;;;4989449;28;20067;-59
2023/10/19 03:26:30;;;;;;;15.27;11.20;;;332.90;2329.60;;;;;;4973071;28;20019;-59
2023/10/19 03:29:07;;;;;;;20.27;12.27;;;332.90;2329.60;;;;;;4981243;28;20022;-62
2023/10/19 03:31:33;;;;;;;17.67;11.15;;;333.00;2329.60;;;;;;4993420;28;20030;-58
2023/10/19 03:33:59;;;;;;;19.17;12.48;;;333.10;2329.60;;;;;;4993296;28;20494;-60
2023/10/19 03:36:26;;;;;;;23.48;14.48;;;333.10;2329.60;;;;;;4993512;28;20365;-62
2023/10/19 03:38:53;;;;;;;21.38;13.57;;;333.00;2329.60;;;;;;4976053;28;20117;-60
2023/10/19 03:41:21;;;;;;;21.15;15.27;;;333.00;2329.60;;;;;;4993053;28;20504;-61
2023/10/19 03:43:51;;;;;;;17.75;14.00;;;333.00;2329.60;;;;;;4992589;28;20424;-60
2023/10/19 03:49:13;;;;;;;22.23;16.55;;;332.80;2329.60;;;;;;4977089;28;20398;-59
2023/10/19 03:54:28;;;;;;;23.02;16.98;;;307.80;2304.00;;;;;;4932522;29;20148;-58
2023/10/19 03:56:57;;;;;;;19.38;15.70;;;307.70;2304.00;;;;;;4931276;29;20068;-62
2023/10/19 03:59:24;;;;;;;27.58;18.77;;;307.60;2304.00;;;;;;4920202;29;20094;-62
2023/10/19 04:01:49;;;;;;;22.45;17.55;;;307.50;2304.00;;;;;;4932312;29;20036;-61
2023/10/19 04:04:16;;;;;;;22.25;16.17;;;307.60;2304.00;;;;;;4932557;29;20026;-61
2023/10/19 04:06:48;;;;;;;21.23;16.73;;;307.60;2304.00;;;;;;4932835;29;20040;-62
2023/10/19 04:09:18;;;;;;;26.45;18.60;;;307.60;2304.00;;;;;;4932502;29;20106;-58
2023/10/19 04:11:52;;;;;;;22.88;18.00;;;307.60;2304.00;;;;;;4932412;29;20047;-58
2023/10/19 04:14:20;;;;;;;21.90;18.27;;;307.60;2304.00;;;;;;4932063;29;20577;-59
2023/10/19 04:16:48;;;;;;;35.83;21.10;;;307.60;2304.00;;;;;;4932440;29;20037;-61
2023/10/19 04:19:15;;;;;;;32.45;20.00;;;307.60;2304.00;;;;;;4913210;29;20043;-58
2023/10/19 04:21:46;;;;;;;25.42;20.98;;;307.30;2304.00;;;;;;4926177;29;20539;-60
2023/10/19 04:24:13;;;;;;;36.92;27.88;;;307.20;2304.00;;;;;;4932283;29;20032;-59
2023/10/19 04:26:39;;;;;;;38.33;29.40;;;307.20;2304.00;;;;;;4931806;29;20035;-62
2023/10/19 04:29:14;;;;;;;35.08;27.92;;;282.50;2278.40;;;;;;4932066;29;20047;-61
2023/10/19 04:31:49;;;;;;;36.80;27.35;;;282.50;2278.40;;;;;;4952673;28;20549;-61
2023/10/19 04:34:16;;;;;;;42.25;33.13;;;307.20;2304.00;;;;;;4978799;28;20097;-61
2023/10/19 04:36:42;;;;;;;70.90;49.58;;;307.20;2304.00;;;;;;4992297;28;20720;-62
2023/10/19 04:39:13;;;;;;;111.55;78.85;;;307.20;2304.00;;;;;;4991873;28;20113;-60
2023/10/19 04:41:44;;;;;;;67.70;50.33;;;282.50;2278.40;;;;;;4991062;28;20042;-59
2023/10/19 04:44:10;;;;;;;43.47;28.55;;;307.30;2304.00;;;;;;4966045;28;20366;-59
2023/10/19 04:46:36;;;;;;;59.00;42.70;;;307.30;2304.00;;;;;;4981628;28;20030;-61
2023/10/19 04:49:03;;;;;;;57.15;37.92;;;307.30;2304.00;;;;;;4978272;28;20031;-59
2023/10/19 04:51:29;;;;;;;87.93;65.40;;;307.30;2304.00;;;;;;4991797;28;20030;-61
2023/10/19 04:53:55;;;;;;;101.70;78.82;;;307.40;2304.00;;;;;;4991956;28;20026;-60
2023/10/19 04:56:22;;;;;;;81.88;65.65;;;307.50;2304.00;;;;;;4992069;28;20041;-64
2023/10/19 04:58:48;;;;;;;72.28;58.08;;;307.50;2304.00;;;;;;4993055;28;20019;-61
2023/10/19 05:01:15;;;;;;;83.97;62.92;;;307.60;2304.00;;;;;;4991591;28;20039;-61
2023/10/19 05:03:41;;;;;;;82.47;59.90;;;307.60;2304.00;;;;;;4991182;28;20026;-61
2023/10/19 05:06:09;;;;;;;67.57;47.67;;;307.60;2304.00;;;;;;4971762;28;20110;-61
2023/10/19 05:08:36;;;;;;;61.60;44.78;;;307.70;2304.00;;;;;;4982892;28;20388;-62
2023/10/19 05:11:03;;;;;;;67.90;50.70;;;307.70;2304.00;;;;;;4976214;28;20030;-58
2023/10/19 05:13:30;;;;;;;71.57;48.60;;;307.60;2304.00;;;;;;4985266;28;20046;-61
2023/10/19 05:15:56;;;;;;;63.83;49.20;;;307.60;2304.00;;;;;;4991293;28;20022;-61
2023/10/19 05:18:25;;;;;;;64.68;48.08;;;307.60;2304.00;;;;;;4990630;28;20092;-61
2023/10/19 05:20:55;;;;;;;68.25;48.08;;;307.70;2304.00;;;;;;4991373;28;20034;-62
2023/10/19 05:23:25;;;;;;;55.92;42.13;;;307.70;2304.00;;;;;;4990181;28;20477;-57
2023/10/19 05:26:02;;;;;;;57.40;43.58;;;307.80;2304.00;;;;;;4990603;28;20527;-61
2023/10/19 05:28:28;;;;;;;52.45;38.92;;;307.90;2304.00;;;;;;4990629;28;20077;-60
2023/10/19 05:30:54;;;;;;;48.25;37.00;;;307.90;2304.00;;;;;;4991106;28;20531;-61
2023/10/19 05:33:23;;;;;;;58.17;36.75;;;307.90;2304.00;;;;;;4990623;28;20022;-58
2023/10/19 05:35:50;;;;;;;45.55;34.90;;;308.00;2304.00;;;;;;4990949;28;20025;-56
2023/10/19 05:38:19;;;;;;;49.85;36.33;;;308.00;2304.00;;;;;;4990840;28;20449;-61
2023/10/19 05:40:45;;;;;;;43.80;34.80;;;308.10;2304.00;;;;;;4990867;28;20027;-61
2023/10/19 05:43:11;;;;;;;40.92;30.83;;;332.80;2329.60;;;;;;4989980;28;20030;-58
2023/10/19 05:45:40;;;;;;;48.13;40.17;;;308.10;2304.00;;;;;;4990490;28;20062;-58
2023/10/19 05:48:09;;;;;;;42.53;32.65;;;332.80;2329.60;;;;;;4970287;28;20038;-60
2023/10/19 05:50:35;;;;;;;41.28;32.38;;;332.90;2329.60;;;;;;4982594;28;20026;-61
2023/10/19 05:53:02;;;;;;;40.60;28.17;;;332.80;2329.60;;;;;;4990721;28;20494;-61
2023/10/19 05:55:28;;;;;;;33.35;26.35;;;332.80;2329.60;;;;;;4993569;28;20030;-61
2023/10/19 05:57:55;;;;;;;30.75;24.00;;;332.80;2329.60;;;;;;4992337;28;20085;-61
2023/10/19 06:00:21;;;;;;;30.65;22.58;;;332.80;2329.60;;;;;;4990514;28;20029;-58
2023/10/19 06:02:49;;;;;;;34.95;25.98;;;332.80;2329.60;;;;;;4990049;28;20034;-59
2023/10/19 06:05:16;;;;;;;33.72;24.88;;;332.80;2329.60;;;;;;4990574;28;20025;-60
2023/10/19 06:07:45;;;;;;;31.30;23.45;;;332.80;2329.60;;;;;;4990341;28;20034;-61
2023/10/19 06:10:16;;;;;;;29.30;22.90;;;332.90;2329.60;;;;;;4990547;28;20088;-60
2023/10/19 06:12:51;;;;;;;36.97;27.13;;;332.90;2329.60;;;;;;4989359;28;20057;-61
2023/10/19 06:15:20;;;;;;;50.63;42.70;;;332.80;2329.60;;;;;;4990163;28;20031;-61
2023/10/19 06:17:47;;;;;;;49.85;42.17;;;332.80;2329.60;;;;;;4990119;28;20582;-60
2023/10/19 06:20:23;;;;;;;52.55;45.10;;;332.80;2329.60;;;;;;4976977;28;20042;-62
2023/10/19 06:22:56;;;;;;;60.47;47.63;;;333.00;2329.60;;;;;;4988473;28;20038;-59
2023/10/19 06:25:24;;;;;;;73.53;57.85;;;333.20;2329.60;;;;;;4972388;28;20554;-59
2023/10/19 06:27:51;;;;;;;62.53;49.88;;;333.70;2329.60;;;;;;4989938;28;20069;-58
2023/10/19 06:30:19;;;;;;;55.13;44.50;;;358.60;2329.60;;;;;;4989358;28;20488;-59
2023/10/19 06:32:52;;;;;;;52.75;41.55;;;358.80;2329.60;;;;;;4990254;28;20048;-60
2023/10/19 06:35:20;;;;;;;49.58;41.75;;;359.00;2329.60;;;;;;4989553;28;20042;-59
2023/10/19 06:37:46;;;;;;;43.97;36.60;;;359.10;2329.60;;;;;;4990213;28;20072;-62
2023/10/19 06:40:16;;;;;;;56.05;42.20;;;359.20;2329.60;;;;;;4989976;28;20030;-61
2023/10/19 06:42:46;;;;;;;79.75;57.75;;;359.20;2329.60;;;;;;4989319;28;20050;-62
2023/10/19 06:45:13;;;;;;;62.78;51.03;;;359.10;2329.60;;;;;;4989073;28;20118;-62
2023/10/19 06:47:44;;;;;;;58.35;46.08;;;359.20;2329.60;;;;;;4989222;28;20457;-62
2023/10/19 06:50:11;;;;;;;60.78;43.70;;;359.30;2329.60;;;;;;4989457;28;20038;-63
2023/10/19 06:52:39;;;;;;;51.25;40.22;;;359.30;2329.60;;;;;;4974609;28;20023;-61
2023/10/19 06:55:07;;;;;;;49.95;36.58;;;384.00;2329.60;;;;;;4981380;28;20077;-60
2023/10/19 06:57:33;;;;;;;46.22;38.63;;;384.40;2329.60;;;;;;4989908;28;20106;-59
2023/10/19 06:59:59;;;;;;;48.45;40.67;;;384.60;2329.60;;;;;;4989037;28;20034;-61
2023/10/19 07:02:26;;;;;;;52.63;41.63;;;384.80;2329.60;;;;;;4989025;28;20043;-59
2023/10/19 07:04:52;;;;;;;51.70;40.78;;;384.80;2329.60;;;;;;4989208;28;20058;-74
2023/10/19 07:07:18;;;;;;;86.25;63.38;;;384.90;2329.60;;;;;;4989726;28;20038;-78
2023/10/19 07:09:44;;;;;;;76.50;54.53;;;410.00;2355.20;;;;;;4989287;28;20026;-79
2023/10/19 07:12:10;;;;;;;78.53;55.13;;;461.60;2380.80;;;;;;4988368;28;20473;-79
2023/10/19 07:14:36;;;;;;;54.88;40.83;;;537.80;2406.40;;;;;;4989114;28;20027;-71
2023/10/19 07:17:01;;;;;;;39.13;33.53;;;564.10;2432.00;;;;;;4988944;28;20031;-79
2023/10/19 07:19:29;;;;;;;38.67;33.88;;;614.60;2227.20;;;;;;4990592;28;20019;-73
2023/10/19 07:21:57;;;;;;;77.95;67.07;;;615.30;2099.20;;;;;;4989516;28;20518;-73
2023/10/19 07:24:26;;;;;;;40.05;35.72;;;640.80;2022.40;;;;;;4990247;28;20038;-75
2023/10/19 07:27:07;;;;;;;40.75;34.35;;;640.90;1971.20;;;;;;4989168;28;20019;-74
2023/10/19 07:29:35;;;;;;;41.42;35.45;;;666.00;1945.60;;;;;;4974965;28;20031;-77
2023/10/19 07:32:02;;;;;;;47.60;42.40;;;691.30;1868.80;;;;;;4971825;28;20085;-69
2023/10/19 07:34:33;;;;;;;46.40;41.70;;;691.80;1843.20;;;;;;4973386;28;20038;-77
2023/10/19 07:36:59;;;;;;;57.47;45.17;;;742.50;1792.00;;;;;;4979068;28;20038;-75
2023/10/19 07:39:29;;;;;;;46.47;40.25;;;743.10;1715.20;;;;;;4981319;28;20456;-77
2023/10/19 07:41:56;;;;;;;51.95;43.63;;;717.60;1689.60;;;;;;4988107;28;20529;-77
2023/10/19 07:44:22;;;;;;;52.55;44.03;;;716.90;1766.40;;;;;;4988170;28;20073;-72
2023/10/19 07:46:49;;;;;;;54.72;40.67;;;691.70;1766.40;;;;;;4988271;28;20066;-69
2023/10/19 07:49:15;;;;;;;51.33;38.85;;;691.30;1792.00;;;;;;4987183;28;20445;-70
2023/10/19 07:51:47;;;;;;;52.05;44.05;;;666.50;1817.60;;;;;;4979372;28;20034;-67
2023/10/19 07:54:13;;;;;;;41.20;36.53;;;666.20;1817.60;;;;;;4988193;28;20070;-73
2023/10/19 07:56:39;;;;;;;59.88;42.13;;;640.60;1868.80;;;;;;4988979;28;20385;-66
2023/10/19 07:59:06;;;;;;;44.05;36.17;;;691.90;1766.40;;;;;;4988713;28;20031;-76
2023/10/19 08:01:33;;;;;;;56.50;40.42;;;692.10;1715.20;;;;;;4975999;28;20031;-75
2023/10/19 08:03:59;;;;;;;51.03;36.63;;;742.60;1689.60;;;;;;4982539;28;20073;-78
2023/10/19 08:06:26;;;;;;;47.83;37.60;;;742.90;1664.00;;;;;;4988952;28;20061;-71
2023/10/19 08:08:52;;;;;;;51.47;35.67;;;717.60;1689.60;;;;;;4988749;28;20118;-78
2023/10/19 08:11:18;;;;;;;43.90;34.97;;;743.20;1612.80;;;;;;4988851;28;20030;-74
2023/10/19 08:13:44;;;;;;;40.10;34.60;;;768.60;1612.80;;;;;;4991441;28;20046;-77
2023/10/19 08:16:12;;;;;;;45.58;37.03;;;743.00;1638.40;;;;;;4992381;28;20116;-70
2023/10/19 08:18:37;;;;;;;41.45;36.35;;;793.80;1587.20;;;;;;4991962;28;20113;-67
2023/10/19 08:21:03;;;;;;;46.63;38.53;;;794.00;1587.20;;;;;;4992373;28;20168;-75
2023/10/19 08:23:31;;;;;;;56.78;45.42;;;794.10;1561.60;;;;;;4991092;28;20050;-77
2023/10/19 08:25:58;;;;;;;42.10;36.28;;;819.40;1536.00;;;;;;4991821;28;20030;-76
2023/10/19 08:28:24;;;;;;;42.25;37.30;;;794.10;1561.60;;;;;;4991546;28;20022;-79
2023/10/19 08:31:02;;;;;;;41.97;37.42;;;794.10;1587.20;;;;;;4988109;28;20028;-76
2023/10/19 08:33:29;;;;;;;39.50;35.30;;;793.70;1587.20;;;;;;4976967;28;20033;-79
2023/10/19 08:35:59;;;;;;;45.28;37.63;;;819.80;1510.40;;;;;;4991941;28;20027;-76
2023/10/19 08:38:26;;;;;;;54.17;47.40;;;794.10;1561.60;;;;;;4991431;28;20023;-78
2023/10/19 08:40:53;;;;;;;154.20;127.45;;;742.80;1664.00;;;;;;4992000;28;20053;-76
2023/10/19 08:43:19;;;;;;;65.32;58.65;;;716.90;1740.80;;;;;;4991316;28;20496;-75
2023/10/19 08:45:45;;;;;;;44.90;39.67;;;742.40;1715.20;;;;;;4990841;28;20122;-73
2023/10/19 08:48:11;;;;;;;46.88;38.17;;;743.30;1664.00;;;;;;4990562;28;20030;-75
2023/10/19 08:50:37;;;;;;;55.95;45.47;;;717.60;1689.60;;;;;;4991748;28;20041;-74
2023/10/19 08:53:08;;;;;;;52.22;41.67;;;692.00;1740.80;;;;;;4991323;28;20068;-75
2023/10/19 08:55:35;;;;;;;43.65;38.85;;;640.70;1894.40;;;;;;4990502;28;20042;-76
2023/10/19 08:58:00;;;;;;;43.92;39.75;;;691.60;1817.60;;;;;;4990708;28;20033;-74
2023/10/19 09:00:27;;;;;;;43.55;37.60;;;666.50;1843.20;;;;;;4989015;28;20717;-77
2023/10/19 09:02:53;;;;;;;51.20;37.97;;;666.20;1894.40;;;;;;4985206;28;20038;-72
2023/10/19 09:05:22;;;;;;;51.22;39.72;;;640.10;1971.20;;;;;;4985717;28;20018;-67
2023/10/19 09:07:54;;;;;;;39.70;28.67;;;640.00;1996.80;;;;;;4990743;28;20026;-74
2023/10/19 09:10:31;;;;;;;33.20;19.50;;;589.70;2073.60;;;;;;4989678;28;20054;-71
2023/10/19 09:13:04;;;;;;;11.40;9.27;;;614.40;1971.20;;;;;;4973589;28;20058;-68
2023/10/19 09:15:32;;;;;;;15.93;9.55;;;589.60;1945.60;;;;;;4989161;28;20080;-68
2023/10/19 09:18:16;;;;;;;15.60;9.00;;;589.40;1971.20;;;;;;4990785;28;20784;-71
2023/10/19 09:20:52;;;;;;;10.32;6.72;;;589.50;1945.60;;;;;;4984290;28;20027;-69
2023/10/19 09:23:30;;;;;;;7.25;6.40;;;589.40;1971.20;;;;;;4990577;28;20034;-77
2023/10/19 09:25:58;;;;;;;8.10;4.97;;;589.50;1920.00;;;;;;4982273;28;20034;-76
2023/10/19 09:28:24;;;;;;;8.77;4.97;;;589.40;1945.60;;;;;;4990812;28;20038;-72
2023/10/19 09:30:51;;;;;;;6.65;4.35;;;589.30;1945.60;;;;;;4980798;28;20105;-69
2023/10/19 09:33:17;;;;;;;7.68;4.32;;;589.10;1945.60;;;;;;4990087;28;20034;-71
2023/10/19 09:35:50;;;;;;;6.95;4.38;;;589.20;1971.20;;;;;;4990378;28;20092;-74
2023/10/19 09:38:21;;;;;;;7.50;4.43;;;589.10;1971.20;;;;;;4989775;28;20533;-75
2023/10/19 09:40:49;;;;;;;6.45;4.60;;;589.40;1971.20;;;;;;4973705;28;20038;-69
2023/10/19 09:43:22;;;;;;;6.63;4.70;;;589.50;1996.80;;;;;;4982165;28;20068;-66
2023/10/19 09:45:51;;;;;;;15.00;5.78;;;614.40;1971.20;;;;;;4990172;28;20045;-65
2023/10/19 09:48:19;;;;;;;6.13;4.32;;;614.40;1971.20;;;;;;4989624;28;20433;-69
2023/10/19 09:50:54;;;;;;;6.75;4.93;;;614.50;1945.60;;;;;;4990194;28;20101;-67
2023/10/19 09:53:28;;;;;;;9.45;4.78;;;614.40;1945.60;;;;;;4989659;28;20445;-67
2023/10/19 09:55:57;;;;;;;10.27;5.13;;;614.40;1945.60;;;;;;4990002;28;20023;-69
2023/10/19 09:58:35;;;;;;;6.97;5.13;;;614.50;1945.60;;;;;;4989622;28;20527;-69
2023/10/19 10:01:02;;;;;;;6.40;3.92;;;614.50;1945.60;;;;;;4985275;28;20077;-65
2023/10/19 10:03:51;;;;;;;6.40;3.65;;;614.50;1920.00;;;;;;4989043;28;20570;-73
2023/10/19 10:06:27;;;;;;;5.72;3.60;;;614.70;1920.00;;;;;;4985867;28;20026;-73
2023/10/19 10:08:53;;;;;;;4.75;3.22;;;614.80;1920.00;;;;;;4989616;28;20018;-67
2023/10/19 10:11:24;;;;;;;7.88;4.30;;;614.80;1945.60;;;;;;4989503;28;20034;-72
2023/10/19 10:13:52;;;;;;;7.28;3.10;;;614.70;1945.60;;;;;;4989528;28;20046;-75
2023/10/19 10:16:19;;;;;;;7.25;5.85;;;614.40;1920.00;;;;;;4989952;28;20033;-75
2023/10/19 10:18:50;;;;;;;8.30;5.47;;;589.60;1971.20;;;;;;4973617;28;20031;-72
2023/10/19 10:21:20;;;;;;;8.88;4.30;;;589.40;1945.60;;;;;;4971570;28;20035;-67
2023/10/19 10:23:47;;;;;;;7.53;3.72;;;589.40;1971.20;;;;;;4981604;28;20022;-72
2023/10/19 10:26:15;;;;;;;7.60;4.80;;;589.50;1996.80;;;;;;4989291;28;20045;-68
2023/10/19 10:28:47;;;;;;;7.00;4.75;;;589.60;1945.60;;;;;;4983665;28;20033;-67
2023/10/19 10:31:22;;;;;;;6.53;4.28;;;589.70;1945.60;;;;;;4989159;28;20031;-69
2023/10/19 10:33:49;;;;;;;25.20;12.65;;;589.60;1971.20;;;;;;4971867;28;20023;-70
2023/10/19 10:36:19;;;;;;;5.80;4.78;;;589.60;1945.60;;;;;;4990243;28;20089;-72
2023/10/19 10:38:52;;;;;;;30.35;16.05;;;589.60;1945.60;;;;;;4989129;28;20026;-74
2023/10/19 10:41:27;;;;;;;12.90;7.93;;;614.40;1945.60;;;;;;4958476;28;20069;-70
2023/10/19 10:43:58;;;;;;;15.25;13.63;;;614.50;1920.00;;;;;;4987730;28;20030;-68
2023/10/19 10:46:27;;;;;;;13.48;12.07;;;614.40;1920.00;;;;;;4989560;28;20034;-73
2023/10/19 10:48:53;;;;;;;7.80;4.60;;;589.70;1920.00;;;;;;4989334;28;20041;-73
2023/10/19 10:51:23;;;;;;;6.82;5.47;;;589.70;1945.60;;;;;;4978871;28;20033;-65
2023/10/19 10:53:51;;;;;;;8.10;5.40;;;614.50;1920.00;;;;;;4987425;28;20038;-66
2023/10/19 10:56:18;;;;;;;7.15;4.78;;;614.80;1920.00;;;;;;4989769;28;20731;-68
2023/10/19 10:58:44;;;;;;;5.80;4.45;;;615.00;1894.40;;;;;;4989616;28;20026;-66
2023/10/19 11:01:10;;;;;;;7.47;4.97;;;615.20;1894.40;;;;;;4982638;28;20119;-66
2023/10/19 11:03:42;;;;;;;6.32;3.90;;;640.00;1868.80;;;;;;4976446;28;20048;-73
2023/10/19 11:06:09;;;;;;;6.47;4.40;;;640.10;1843.20;;;;;;4969851;28;20026;-72
2023/10/19 11:08:36;;;;;;;6.20;4.40;;;640.20;1868.80;;;;;;4948050;28;20032;-70
2023/10/19 11:11:10;;;;;;;9.32;4.93;;;640.40;1817.60;;;;;;4976110;28;20038;-71
2023/10/19 11:13:38;;;;;;;7.13;4.47;;;640.50;1817.60;;;;;;4989476;28;20100;-70
2023/10/19 11:16:05;;;;;;;9.50;5.35;;;640.50;1817.60;;;;;;4988226;28;20031;-73
2023/10/19 11:18:39;;;;;;;15.00;7.65;;;640.20;1817.60;;;;;;4989126;28;20037;-70
2023/10/19 11:21:09;;;;;;;10.98;6.97;;;640.10;1868.80;;;;;;4989187;28;21986;-73
2023/10/19 11:23:46;;;;;;;11.30;5.80;;;640.10;1843.20;;;;;;4988912;28;20031;-73
2023/10/19 11:26:14;;;;;;;8.20;4.93;;;640.10;1843.20;;;;;;4989477;28;20046;-71
2023/10/19 11:28:46;;;;;;;11.75;5.35;;;640.10;1843.20;;;;;;4989007;28;20018;-73
2023/10/19 11:31:22;;;;;;;6.55;4.60;;;640.20;1843.20;;;;;;4989098;28;20030;-70
2023/10/19 11:33:49;;;;;;;8.65;3.90;;;640.40;1817.60;;;;;;4989212;28;20034;-72
2023/10/19 11:36:16;;;;;;;7.10;4.38;;;640.70;1843.20;;;;;;4989099;28;20035;-74
2023/10/19 11:38:43;;;;;;;7.82;4.10;;;640.90;1843.20;;;;;;4987987;28;20045;-73
2023/10/19 11:41:10;;;;;;;5.57;3.38;;;640.90;1792.00;;;;;;4988392;28;20037;-72
2023/10/19 11:43:36;;;;;;;7.53;3.00;;;665.70;1843.20;;;;;;4963272;28;20039;-73
2023/10/19 11:46:05;;;;;;;4.93;3.38;;;665.70;1843.20;;;;;;4983098;28;20022;-73
2023/10/19 11:48:33;;;;;;;6.43;3.55;;;640.90;1817.60;;;;;;4991798;28;20491;-72
2023/10/19 11:51:03;;;;;;;5.55;3.97;;;640.70;1817.60;;;;;;4967885;28;20034;-67
2023/10/19 11:53:34;;;;;;;6.82;3.40;;;640.50;1792.00;;;;;;4992630;28;20384;-71
2023/10/19 11:56:08;;;;;;;8.70;4.25;;;640.40;1817.60;;;;;;4992853;28;20065;-70
2023/10/19 11:58:34;;;;;;;7.57;4.32;;;640.40;1843.20;;;;;;4992185;28;20486;-71
2023/10/19 12:01:05;;;;;;;8.65;4.70;;;640.40;1843.20;;;;;;4991593;28;20026;-71
2023/10/19 12:03:31;;;;;;;10.55;4.45;;;640.40;1843.20;;;;;;4991089;28;20057;-66
2023/10/19 12:06:04;;;;;;;6.53;4.35;;;640.60;1843.20;;;;;;4992764;28;20756;-67
2023/10/19 12:08:29;;;;;;;10.18;6.22;;;640.60;1817.60;;;;;;4992125;28;20034;-70
2023/10/19 12:10:55;;;;;;;12.20;7.43;;;640.50;1843.20;;;;;;4991899;28;20037;-73
2023/10/19 12:13:21;;;;;;;12.70;8.00;;;640.30;1843.20;;;;;;4983566;28;20054;-72
2023/10/19 12:15:54;;;;;;;13.95;6.38;;;640.10;1843.20;;;;;;4984199;28;20019;-67
2023/10/19 12:18:21;;;;;;;11.27;7.13;;;640.00;1894.40;;;;;;4992078;28;20027;-72
2023/10/19 12:20:47;;;;;;;11.02;6.18;;;615.30;1894.40;;;;;;4992299;28;20527;-74
2023/10/19 12:23:14;;;;;;;7.57;5.75;;;615.30;1920.00;;;;;;4991126;28;20121;-75
2023/10/19 12:25:42;;;;;;;9.43;5.90;;;615.30;1894.40;;;;;;4991678;28;20023;-74
2023/10/19 12:28:08;;;;;;;11.95;6.90;;;640.00;1920.00;;;;;;4992482;28;20030;-72
2023/10/19 12:30:41;;;;;;;12.50;8.30;;;640.30;1894.40;;;;;;4991873;28;20058;-74
2023/10/19 12:33:11;;;;;;;9.43;6.35;;;640.70;1843.20;;;;;;4991142;28;20038;-72
2023/10/19 12:38:33;;;;;;;11.77;6.47;;;665.60;1843.20;;;;;;4953424;28;20366;-69
2023/10/19 12:40:59;;;;;;;10.23;6.53;;;665.70;1868.80;;;;;;4991831;28;20520;-72
2023/10/19 12:43:25;;;;;;;9.77;6.70;;;665.70;1792.00;;;;;;4983393;28;20380;-72
2023/10/19 12:45:53;;;;;;;11.68;6.00;;;665.60;1817.60;;;;;;4983339;28;20041;-70